sensor_id;sensor_type;location;lat;lon;timestamp;pressure;altitude;pressure_sealevel;temperature;humidity
3796;BME280;1913;50.660;7.834;2023-06-19T00:02:14;153219.88;;;20.96;90.43
3796;BME280;1913;50.660;7.834;2023-06-19T00:04:40;153204.69;;;20.90;91.14
3796;BME280;1913;50.660;7.834;2023-06-19T00:07:05;153202.19;;;20.89;90.98
3796;BME280;1913;50.660;7.834;2023-06-19T00:09:31;153184.47;;;20.82;91.28
3796;BME280;1913;50.660;7.834;2023-06-19T00:11:57;153181.91;;;20.81;91.72
3796;BME280;1913;50.660;7.834;2023-06-19T00:14:24;153184.47;;;20.82;91.14
3796;BME280;1913;50.660;7.834;2023-06-19T00:16:50;153164.19;;;20.74;91.99
3796;BME280;1913;50.660;7.834;2023-06-19T00:19:16;153161.69;;;20.73;91.66
3796;BME280;1913;50.660;7.834;2023-06-19T00:21:42;153150.31;;;20.68;92.12
3796;BME280;1913;50.660;7.834;2023-06-19T00:24:09;153133.88;;;20.62;92.21
3796;BME280;1913;50.660;7.834;2023-06-19T00:26:34;153127.53;;;20.59;92.99
3796;BME280;1913;50.660;7.834;2023-06-19T00:29:00;153123.75;;;20.58;92.27
3796;BME280;1913;50.660;7.834;2023-06-19T00:31:25;153133.88;;;20.62;92.68
3796;BME280;1913;50.660;7.834;2023-06-19T00:33:52;153114.91;;;20.54;93.63
3796;BME280;1913;50.660;7.834;2023-06-19T00:36:17;153103.50;;;20.49;94.27
3796;BME280;1913;50.660;7.834;2023-06-19T00:38:47;153098.41;;;20.47;94.60
3796;BME280;1913;50.660;7.834;2023-06-19T00:41:13;153111.09;;;20.52;94.00
3796;BME280;1913;50.660;7.834;2023-06-19T00:43:39;153117.44;;;20.55;94.13
3796;BME280;1913;50.660;7.834;2023-06-19T00:46:05;153108.56;;;20.51;95.28
3796;BME280;1913;50.660;7.834;2023-06-19T00:48:31;153094.66;;;20.46;95.66
3796;BME280;1913;50.660;7.834;2023-06-19T00:50:58;153092.09;;;20.45;95.51
3796;BME280;1913;50.660;7.834;2023-06-19T00:53:24;153100.94;;;20.48;95.44
3796;BME280;1913;50.660;7.834;2023-06-19T00:55:51;153111.09;;;20.52;94.92
3796;BME280;1913;50.660;7.834;2023-06-19T00:58:17;153122.50;;;20.57;94.96
3796;BME280;1913;50.660;7.834;2023-06-19T01:00:43;153123.75;;;20.58;95.00
3796;BME280;1913;50.660;7.834;2023-06-19T01:03:09;153128.78;;;20.60;95.05
3796;BME280;1913;50.660;7.834;2023-06-19T01:05:34;153126.28;;;20.59;95.59
3796;BME280;1913;50.660;7.834;2023-06-19T01:08:03;153128.78;;;20.60;95.25
3796;BME280;1913;50.660;7.834;2023-06-19T01:10:34;153138.94;;;20.64;96.16
3796;BME280;1913;50.660;7.834;2023-06-19T01:13:23;153122.50;;;20.57;97.83
3796;BME280;1913;50.660;7.834;2023-06-19T01:15:52;153081.97;;;20.41;99.17
3796;BME280;1913;50.660;7.834;2023-06-19T01:18:18;153108.56;;;20.51;96.86
3796;BME280;1913;50.660;7.834;2023-06-19T01:20:44;153137.66;;;20.63;95.71
3796;BME280;1913;50.660;7.834;2023-06-19T01:23:11;153174.34;;;20.78;93.42
3796;BME280;1913;50.660;7.834;2023-06-19T01:25:37;153217.38;;;20.95;91.66
3796;BME280;1913;50.660;7.834;2023-06-19T01:28:03;153250.22;;;21.09;89.39
3796;BME280;1913;50.660;7.834;2023-06-19T01:30:31;153281.84;;;21.21;88.63
3796;BME280;1913;50.660;7.834;2023-06-19T01:33:00;153307.16;;;21.32;87.62
3796;BME280;1913;50.660;7.834;2023-06-19T01:35:32;153312.25;;;21.34;87.57
3796;BME280;1913;50.660;7.834;2023-06-19T01:37:59;153293.22;;;21.26;88.35
3796;BME280;1913;50.660;7.834;2023-06-19T01:40:25;153303.34;;;21.30;88.21
3796;BME280;1913;50.660;7.834;2023-06-19T01:42:52;153309.69;;;21.33;89.45
3796;BME280;1913;50.660;7.834;2023-06-19T01:45:18;153298.31;;;21.28;89.73
3796;BME280;1913;50.660;7.834;2023-06-19T01:47:43;153302.09;;;21.29;89.44
3796;BME280;1913;50.660;7.834;2023-06-19T01:50:09;153284.38;;;21.22;90.26
3796;BME280;1913;50.660;7.834;2023-06-19T01:52:35;153273.00;;;21.18;91.31
3796;BME280;1913;50.660;7.834;2023-06-19T01:55:01;153270.50;;;21.17;91.07
3796;BME280;1913;50.660;7.834;2023-06-19T01:57:27;153262.91;;;21.14;89.61
3796;BME280;1913;50.660;7.834;2023-06-19T01:59:53;153269.19;;;21.16;89.46
3796;BME280;1913;50.660;7.834;2023-06-19T02:02:18;153260.31;;;21.13;89.85
3796;BME280;1913;50.660;7.834;2023-06-19T02:04:43;153252.78;;;21.10;90.91
3796;BME280;1913;50.660;7.834;2023-06-19T02:07:09;153252.78;;;21.10;90.13
3796;BME280;1913;50.660;7.834;2023-06-19T02:09:34;153222.41;;;20.97;94.51
3796;BME280;1913;50.660;7.834;2023-06-19T02:11:59;153207.22;;;20.91;94.26
3796;BME280;1913;50.660;7.834;2023-06-19T02:14:25;153193.31;;;20.86;91.68
3796;BME280;1913;50.660;7.834;2023-06-19T02:16:50;153208.50;;;20.92;89.46
3796;BME280;1913;50.660;7.834;2023-06-19T02:19:15;153197.09;;;20.87;91.15
3796;BME280;1913;50.660;7.834;2023-06-19T02:21:40;153204.69;;;20.90;90.37
3796;BME280;1913;50.660;7.834;2023-06-19T02:24:06;153202.19;;;20.89;90.33
3796;BME280;1913;50.660;7.834;2023-06-19T02:26:31;153193.31;;;20.86;91.49
3796;BME280;1913;50.660;7.834;2023-06-19T02:28:57;153195.84;;;20.87;90.98
3796;BME280;1913;50.660;7.834;2023-06-19T02:31:23;153199.59;;;20.88;90.64
3796;BME280;1913;50.660;7.834;2023-06-19T02:33:48;153208.50;;;20.92;90.66
3796;BME280;1913;50.660;7.834;2023-06-19T02:36:14;153219.88;;;20.96;90.62
3796;BME280;1913;50.660;7.834;2023-06-19T02:38:45;153237.59;;;21.03;89.67
3796;BME280;1913;50.660;7.834;2023-06-19T02:41:10;153237.59;;;21.03;90.46
3796;BME280;1913;50.660;7.834;2023-06-19T02:43:36;153236.34;;;21.03;90.87
3796;BME280;1913;50.660;7.834;2023-06-19T02:46:01;153236.34;;;21.03;90.87
3796;BME280;1913;50.660;7.834;2023-06-19T02:48:27;153243.94;;;21.06;91.10
3796;BME280;1913;50.660;7.834;2023-06-19T02:50:53;153254.03;;;21.10;91.30
3796;BME280;1913;50.660;7.834;2023-06-19T02:53:18;153241.38;;;21.05;92.99
3796;BME280;1913;50.660;7.834;2023-06-19T02:55:43;153254.03;;;21.10;92.42
3796;BME280;1913;50.660;7.834;2023-06-19T02:58:09;153256.56;;;21.11;92.87
3796;BME280;1913;50.660;7.834;2023-06-19T03:00:34;153260.31;;;21.13;92.13
3796;BME280;1913;50.660;7.834;2023-06-19T03:02:59;153245.19;;;21.07;92.12
3796;BME280;1913;50.660;7.834;2023-06-19T03:05:24;153264.16;;;21.14;92.84
3796;BME280;1913;50.660;7.834;2023-06-19T03:07:52;153255.31;;;21.11;93.57
3796;BME280;1913;50.660;7.834;2023-06-19T03:10:17;153222.41;;;20.97;95.02
3796;BME280;1913;50.660;7.834;2023-06-19T03:12:43;153181.91;;;20.81;96.68
3796;BME280;1913;50.660;7.834;2023-06-19T03:15:08;153208.50;;;20.92;96.44
3796;BME280;1913;50.660;7.834;2023-06-19T03:17:33;153173.06;;;20.77;98.22
3796;BME280;1913;50.660;7.834;2023-06-19T03:19:59;153152.84;;;20.69;99.51
3796;BME280;1913;50.660;7.834;2023-06-19T03:22:24;153151.56;;;20.69;100.00
3796;BME280;1913;50.660;7.834;2023-06-19T03:24:49;153145.25;;;20.66;100.00
3796;BME280;1913;50.660;7.834;2023-06-19T03:27:15;153127.53;;;20.59;100.00
3796;BME280;1913;50.660;7.834;2023-06-19T03:29:40;153123.75;;;20.58;100.00
3796;BME280;1913;50.660;7.834;2023-06-19T03:32:06;153127.53;;;20.59;100.00
3796;BME280;1913;50.660;7.834;2023-06-19T03:34:31;153146.50;;;20.67;100.00
3796;BME280;1913;50.660;7.834;2023-06-19T03:36:56;153156.66;;;20.71;100.00
3796;BME280;1913;50.660;7.834;2023-06-19T03:39:22;153168.03;;;20.75;100.00
3796;BME280;1913;50.660;7.834;2023-06-19T03:41:48;153169.28;;;20.76;100.00
3796;BME280;1913;50.660;7.834;2023-06-19T03:44:13;153165.50;;;20.74;100.00
3796;BME280;1913;50.660;7.834;2023-06-19T03:46:38;153169.28;;;20.76;100.00
3796;BME280;1913;50.660;7.834;2023-06-19T03:49:03;153175.63;;;20.78;100.00
3796;BME280;1913;50.660;7.834;2023-06-19T03:51:30;153174.34;;;20.78;100.00
3796;BME280;1913;50.660;7.834;2023-06-19T03:53:55;153173.06;;;20.77;100.00
3796;BME280;1913;50.660;7.834;2023-06-19T03:56:20;153162.94;;;20.73;100.00
3796;BME280;1913;50.660;7.834;2023-06-19T03:58:46;153165.50;;;20.74;100.00
3796;BME280;1913;50.660;7.834;2023-06-19T04:01:11;153169.28;;;20.76;100.00
3796;BME280;1913;50.660;7.834;2023-06-19T04:03:36;153138.94;;;20.64;100.00
3796;BME280;1913;50.660;7.834;2023-06-19T04:06:02;153119.94;;;20.56;100.00
3796;BME280;1913;50.660;7.834;2023-06-19T04:08:27;153097.16;;;20.47;100.00
3796;BME280;1913;50.660;7.834;2023-06-19T04:10:52;153080.72;;;20.40;100.00
3796;BME280;1913;50.660;7.834;2023-06-19T04:13:18;153050.38;;;20.28;100.00
3796;BME280;1913;50.660;7.834;2023-06-19T04:15:43;153032.69;;;20.21;100.00
3796;BME280;1913;50.660;7.834;2023-06-19T04:18:10;153011.16;;;20.12;100.00
3796;BME280;1913;50.660;7.834;2023-06-19T04:20:35;152993.47;;;20.05;100.00
3796;BME280;1913;50.660;7.834;2023-06-19T04:23:00;153012.44;;;20.13;100.00
3796;BME280;1913;50.660;7.834;2023-06-19T04:25:26;153009.91;;;20.12;100.00
3796;BME280;1913;50.660;7.834;2023-06-19T04:27:51;153007.41;;;20.11;100.00
3796;BME280;1913;50.660;7.834;2023-06-19T04:30:17;152978.28;;;19.99;100.00
3796;BME280;1913;50.660;7.834;2023-06-19T04:32:42;152979.59;;;19.99;100.00
3796;BME280;1913;50.660;7.834;2023-06-19T04:35:10;152959.34;;;19.91;100.00
3796;BME280;1913;50.660;7.834;2023-06-19T04:37:36;152956.81;;;19.90;100.00
3796;BME280;1913;50.660;7.834;2023-06-19T04:40:01;152937.88;;;19.82;100.00
3796;BME280;1913;50.660;7.834;2023-06-19T04:42:28;152942.91;;;19.84;100.00
3796;BME280;1913;50.660;7.834;2023-06-19T04:44:54;152907.50;;;19.70;100.00
3796;BME280;1913;50.660;7.834;2023-06-19T04:47:23;152906.25;;;19.70;100.00
3796;BME280;1913;50.660;7.834;2023-06-19T04:49:48;152893.63;;;19.65;100.00
3796;BME280;1913;50.660;7.834;2023-06-19T04:52:13;152883.47;;;19.60;100.00
3796;BME280;1913;50.660;7.834;2023-06-19T04:54:39;152891.06;;;19.64;100.00
3796;BME280;1913;50.660;7.834;2023-06-19T04:57:05;152883.47;;;19.60;100.00
3796;BME280;1913;50.660;7.834;2023-06-19T04:59:31;152883.47;;;19.60;100.00
3796;BME280;1913;50.660;7.834;2023-06-19T05:01:57;152848.09;;;19.46;100.00
3796;BME280;1913;50.660;7.834;2023-06-19T05:04:22;152883.47;;;19.60;100.00
3796;BME280;1913;50.660;7.834;2023-06-19T05:06:49;152855.63;;;19.49;100.00
3796;BME280;1913;50.660;7.834;2023-06-19T05:09:14;152903.75;;;19.69;100.00
3796;BME280;1913;50.660;7.834;2023-06-19T05:11:39;152906.25;;;19.70;100.00
3796;BME280;1913;50.660;7.834;2023-06-19T05:14:05;152903.75;;;19.69;100.00
3796;BME280;1913;50.660;7.834;2023-06-19T05:16:30;152899.91;;;19.67;100.00
3796;BME280;1913;50.660;7.834;2023-06-19T05:18:55;152908.78;;;19.71;100.00
3796;BME280;1913;50.660;7.834;2023-06-19T05:21:21;152941.66;;;19.84;100.00
3796;BME280;1913;50.660;7.834;2023-06-19T05:23:46;152922.69;;;19.76;100.00
3796;BME280;1913;50.660;7.834;2023-06-19T05:26:16;152892.38;;;19.64;100.00
3796;BME280;1913;50.660;7.834;2023-06-19T05:28:41;152930.28;;;19.79;100.00
3796;BME280;1913;50.660;7.834;2023-06-19T05:31:07;153025.09;;;20.18;100.00
3796;BME280;1913;50.660;7.834;2023-06-19T05:33:32;153107.31;;;20.51;100.00
3796;BME280;1913;50.660;7.834;2023-06-19T05:35:57;153121.25;;;20.56;100.00
3796;BME280;1913;50.660;7.834;2023-06-19T05:38:23;153221.13;;;20.97;100.00
3796;BME280;1913;50.660;7.834;2023-06-19T05:40:51;153214.81;;;20.94;100.00
3796;BME280;1913;50.660;7.834;2023-06-19T05:43:17;153243.94;;;21.06;100.00
3796;BME280;1913;50.660;7.834;2023-06-19T05:45:43;153310.94;;;21.33;100.00
3796;BME280;1913;50.660;7.834;2023-06-19T05:48:08;153326.19;;;21.39;100.00
3796;BME280;1913;50.660;7.834;2023-06-19T05:50:34;153266.66;;;21.15;100.00
3796;BME280;1913;50.660;7.834;2023-06-19T05:52:59;153351.50;;;21.49;100.00
3796;BME280;1913;50.660;7.834;2023-06-19T05:55:24;153316.06;;;21.35;100.00
3796;BME280;1913;50.660;7.834;2023-06-19T05:57:50;153337.56;;;21.44;100.00
3796;BME280;1913;50.660;7.834;2023-06-19T06:00:16;153398.28;;;21.68;100.00
3796;BME280;1913;50.660;7.834;2023-06-19T06:02:42;153438.81;;;21.85;100.00
3796;BME280;1913;50.660;7.834;2023-06-19T06:05:08;153475.50;;;21.99;100.00
3796;BME280;1913;50.660;7.834;2023-06-19T06:07:37;153533.75;;;22.23;100.00
3796;BME280;1913;50.660;7.834;2023-06-19T06:10:03;153540.09;;;22.26;100.00
3796;BME280;1913;50.660;7.834;2023-06-19T06:12:29;153560.31;;;22.34;100.00
3796;BME280;1913;50.660;7.834;2023-06-19T06:14:54;153502.06;;;22.10;100.00
3796;BME280;1913;50.660;7.834;2023-06-19T06:17:19;153476.75;;;22.00;100.00
3796;BME280;1913;50.660;7.834;2023-06-19T06:19:44;153426.13;;;21.80;100.00
3796;BME280;1913;50.660;7.834;2023-06-19T06:22:10;153375.50;;;21.59;100.00
3796;BME280;1913;50.660;7.834;2023-06-19T06:24:35;153310.94;;;21.33;100.00
3796;BME280;1913;50.660;7.834;2023-06-19T06:27:00;153348.94;;;21.48;100.00
3796;BME280;1913;50.660;7.834;2023-06-19T06:29:26;153361.63;;;21.54;100.00
3796;BME280;1913;50.660;7.834;2023-06-19T06:31:51;153328.69;;;21.40;100.00
3796;BME280;1913;50.660;7.834;2023-06-19T06:34:19;153341.38;;;21.45;100.00
3796;BME280;1913;50.660;7.834;2023-06-19T06:36:45;153308.44;;;21.32;100.00
3796;BME280;1913;50.660;7.834;2023-06-19T06:39:10;153380.59;;;21.61;100.00
3796;BME280;1913;50.660;7.834;2023-06-19T06:41:36;153437.50;;;21.84;100.00
3796;BME280;1913;50.660;7.834;2023-06-19T06:44:01;153455.22;;;21.91;100.00
3796;BME280;1913;50.660;7.834;2023-06-19T06:46:27;153459.03;;;21.93;100.00
3796;BME280;1913;50.660;7.834;2023-06-19T06:48:53;153540.09;;;22.26;100.00
3796;BME280;1913;50.660;7.834;2023-06-19T06:51:18;153555.28;;;22.32;100.00
3796;BME280;1913;50.660;7.834;2023-06-19T06:53:43;153605.94;;;22.52;100.00
3796;BME280;1913;50.660;7.834;2023-06-19T06:56:09;153692.00;;;22.87;100.00
3796;BME280;1913;50.660;7.834;2023-06-19T06:58:34;153771.81;;;23.19;100.00
3796;BME280;1913;50.660;7.834;2023-06-19T07:00:59;153828.84;;;23.42;100.00
3796;BME280;1913;50.660;7.834;2023-06-19T07:03:25;153735.09;;;23.04;100.00
3796;BME280;1913;50.660;7.834;2023-06-19T07:05:50;153711.03;;;22.94;100.00
3796;BME280;1913;50.660;7.834;2023-06-19T07:08:15;153674.25;;;22.80;100.00
3796;BME280;1913;50.660;7.834;2023-06-19T07:10:41;153785.75;;;23.25;100.00
3796;BME280;1913;50.660;7.834;2023-06-19T07:13:06;153835.19;;;23.45;100.00
3796;BME280;1913;50.660;7.834;2023-06-19T07:15:32;153785.75;;;23.25;100.00
3796;BME280;1913;50.660;7.834;2023-06-19T07:17:57;153602.09;;;22.51;100.00
3796;BME280;1913;50.660;7.834;2023-06-19T07:20:22;153667.97;;;22.77;100.00
3796;BME280;1913;50.660;7.834;2023-06-19T07:22:51;153605.94;;;22.52;100.00
3796;BME280;1913;50.660;7.834;2023-06-19T07:25:16;153617.31;;;22.57;100.00
3796;BME280;1913;50.660;7.834;2023-06-19T07:27:42;153443.84;;;21.87;100.00
3796;BME280;1913;50.660;7.834;2023-06-19T07:30:08;153440.06;;;21.85;100.00
3796;BME280;1913;50.660;7.834;2023-06-19T07:32:34;153509.69;;;22.13;100.00
3796;BME280;1913;50.660;7.834;2023-06-19T07:34:59;153472.97;;;21.98;100.00
3796;BME280;1913;50.660;7.834;2023-06-19T07:37:24;153518.59;;;22.17;100.00
3796;BME280;1913;50.660;7.834;2023-06-19T07:39:51;153508.41;;;22.13;100.00
3796;BME280;1913;50.660;7.834;2023-06-19T07:42:18;153510.94;;;22.14;100.00
3796;BME280;1913;50.660;7.834;2023-06-19T07:44:44;153579.34;;;22.41;100.00
3796;BME280;1913;50.660;7.834;2023-06-19T07:47:09;153461.56;;;21.94;100.00
3796;BME280;1913;50.660;7.834;2023-06-19T07:49:35;153551.47;;;22.30;100.00
3796;BME280;1913;50.660;7.834;2023-06-19T07:52:01;153466.66;;;21.96;100.00
3796;BME280;1913;50.660;7.834;2023-06-19T07:54:26;153608.44;;;22.53;100.00
3796;BME280;1913;50.660;7.834;2023-06-19T07:56:52;153635.03;;;22.64;100.00
3796;BME280;1913;50.660;7.834;2023-06-19T07:59:17;153661.63;;;22.75;100.00
3796;BME280;1913;50.660;7.834;2023-06-19T08:01:43;153605.94;;;22.52;100.00
3796;BME280;1913;50.660;7.834;2023-06-19T08:04:08;153599.59;;;22.50;100.00
3796;BME280;1913;50.660;7.834;2023-06-19T08:06:34;153586.91;;;22.44;100.00
3796;BME280;1913;50.660;7.834;2023-06-19T08:08:59;153669.22;;;22.78;100.00
3796;BME280;1913;50.660;7.834;2023-06-19T08:11:25;153788.28;;;23.26;100.00
3796;BME280;1913;50.660;7.834;2023-06-19T08:13:50;153802.22;;;23.31;100.00
3796;BME280;1913;50.660;7.834;2023-06-19T08:16:15;153989.75;;;24.07;100.00
3796;BME280;1913;50.660;7.834;2023-06-19T08:18:41;154141.84;;;24.68;98.01
3796;BME280;1913;50.660;7.834;2023-06-19T08:21:06;154206.53;;;24.94;96.23
3796;BME280;1913;50.660;7.834;2023-06-19T08:23:31;154100.06;;;24.51;94.50
3796;BME280;1913;50.660;7.834;2023-06-19T08:25:57;154105.13;;;24.53;93.81
3796;BME280;1913;50.660;7.834;2023-06-19T08:28:22;154146.94;;;24.70;91.42
3796;BME280;1913;50.660;7.834;2023-06-19T08:30:48;154157.09;;;24.74;93.13
3796;BME280;1913;50.660;7.834;2023-06-19T08:33:13;154300.38;;;25.32;88.43
3796;BME280;1913;50.660;7.834;2023-06-19T08:35:39;154427.25;;;25.83;82.65
3796;BME280;1913;50.660;7.834;2023-06-19T08:38:04;154436.13;;;25.87;80.89
3796;BME280;1913;50.660;7.834;2023-06-19T08:40:30;154587.13;;;26.47;79.73
3796;BME280;1913;50.660;7.834;2023-06-19T08:42:55;154670.84;;;26.81;71.99
3796;BME280;1913;50.660;7.834;2023-06-19T08:45:21;154634.03;;;26.66;71.42
3796;BME280;1913;50.660;7.834;2023-06-19T08:47:47;154529.94;;;26.24;74.42
3796;BME280;1913;50.660;7.834;2023-06-19T08:50:13;154456.41;;;25.95;75.16
3796;BME280;1913;50.660;7.834;2023-06-19T08:52:39;154188.78;;;24.87;84.43
3796;BME280;1913;50.660;7.834;2023-06-19T08:55:04;154101.34;;;24.52;87.47
3796;BME280;1913;50.660;7.834;2023-06-19T08:57:35;154015.09;;;24.17;90.55
3796;BME280;1913;50.660;7.834;2023-06-19T09:00:00;154060.72;;;24.35;93.94
3796;BME280;1913;50.660;7.834;2023-06-19T09:02:36;154167.22;;;24.78;93.17
3796;BME280;1913;50.660;7.834;2023-06-19T09:05:15;154164.69;;;24.77;92.21
3796;BME280;1913;50.660;7.834;2023-06-19T09:07:42;154215.41;;;24.98;88.71
3796;BME280;1913;50.660;7.834;2023-06-19T09:10:15;154219.19;;;24.99;87.19
3796;BME280;1913;50.660;7.834;2023-06-19T09:13:01;154088.63;;;24.47;93.22
3796;BME280;1913;50.660;7.834;2023-06-19T09:15:29;153975.78;;;24.01;95.92
3796;BME280;1913;50.660;7.834;2023-06-19T09:18:07;153984.66;;;24.05;95.64
3796;BME280;1913;50.660;7.834;2023-06-19T09:20:42;154209.06;;;24.95;88.70
3796;BME280;1913;50.660;7.834;2023-06-19T09:23:11;154329.56;;;25.44;87.14
3796;BME280;1913;50.660;7.834;2023-06-19T09:25:45;154327.00;;;25.43;85.78
3796;BME280;1913;50.660;7.834;2023-06-19T09:28:17;154340.97;;;25.48;81.00
3796;BME280;1913;50.660;7.834;2023-06-19T09:31:01;154448.78;;;25.92;78.55
3796;BME280;1913;50.660;7.834;2023-06-19T09:33:29;154448.78;;;25.92;78.07
3796;BME280;1913;50.660;7.834;2023-06-19T09:35:56;154359.97;;;25.56;80.23
3796;BME280;1913;50.660;7.834;2023-06-19T09:38:24;154408.13;;;25.75;80.51
3796;BME280;1913;50.660;7.834;2023-06-19T09:40:51;154275.00;;;25.22;80.75
3796;BME280;1913;50.660;7.834;2023-06-19T09:43:37;154267.44;;;25.19;80.62
3796;BME280;1913;50.660;7.834;2023-06-19T09:46:04;154238.19;;;25.07;83.25
3796;BME280;1913;50.660;7.834;2023-06-19T09:48:31;154327.00;;;25.43;78.87
3796;BME280;1913;50.660;7.834;2023-06-19T09:53:30;154335.88;;;25.46;79.09
3796;BME280;1913;50.660;7.834;2023-06-19T09:55:55;154632.78;;;26.66;67.79
3796;BME280;1913;50.660;7.834;2023-06-19T09:58:21;154943.81;;;27.91;61.13
3796;BME280;1913;50.660;7.834;2023-06-19T10:00:48;154821.91;;;27.42;57.80
3796;BME280;1913;50.660;7.834;2023-06-19T10:03:16;154871.41;;;27.62;54.31
3796;BME280;1913;50.660;7.834;2023-06-19T10:05:42;154828.25;;;27.44;57.27
3796;BME280;1913;50.660;7.834;2023-06-19T10:08:07;154981.88;;;28.06;52.19
3796;BME280;1913;50.660;7.834;2023-06-19T10:10:33;155112.75;;;28.59;50.71
3796;BME280;1913;50.660;7.834;2023-06-19T10:13:17;154960.31;;;27.98;51.45
3796;BME280;1913;50.660;7.834;2023-06-19T10:15:44;154884.09;;;27.67;53.58
3796;BME280;1913;50.660;7.834;2023-06-19T10:18:17;154805.38;;;27.35;54.85
3796;BME280;1913;50.660;7.834;2023-06-19T10:20:43;154642.91;;;26.70;58.45
3796;BME280;1913;50.660;7.834;2023-06-19T10:23:20;154847.28;;;27.52;54.02
3796;BME280;1913;50.660;7.834;2023-06-19T10:25:58;154926.03;;;27.84;52.01
3796;BME280;1913;50.660;7.834;2023-06-19T10:28:32;154896.81;;;27.72;49.09
3796;BME280;1913;50.660;7.834;2023-06-19T10:31:03;155025.06;;;28.24;51.10
3796;BME280;1913;50.660;7.834;2023-06-19T10:33:30;155213.09;;;28.99;46.47
3796;BME280;1913;50.660;7.834;2023-06-19T10:36:00;154942.56;;;27.90;47.57
3796;BME280;1913;50.660;7.834;2023-06-19T10:38:27;154814.28;;;27.39;51.51
3796;BME280;1913;50.660;7.834;2023-06-19T10:40:53;154933.66;;;27.87;53.86
3796;BME280;1913;50.660;7.834;2023-06-19T10:43:24;155046.69;;;28.32;49.50
3796;BME280;1913;50.660;7.834;2023-06-19T10:45:53;155124.16;;;28.63;49.82
3796;BME280;1913;50.660;7.834;2023-06-19T10:48:27;155251.25;;;29.15;48.61
3796;BME280;1913;50.660;7.834;2023-06-19T10:50:56;155108.94;;;28.57;46.33
3796;BME280;1913;50.660;7.834;2023-06-19T10:53:34;155276.66;;;29.25;46.30
3796;BME280;1913;50.660;7.834;2023-06-19T10:56:01;155510.53;;;30.19;42.15
3796;BME280;1913;50.660;7.834;2023-06-19T10:58:28;155576.66;;;30.45;41.32
3796;BME280;1913;50.660;7.834;2023-06-19T11:00:53;155492.72;;;30.12;41.64
3796;BME280;1913;50.660;7.834;2023-06-19T11:03:20;155248.69;;;29.14;43.41
3796;BME280;1913;50.660;7.834;2023-06-19T11:05:46;155481.28;;;30.07;42.48
3796;BME280;1913;50.660;7.834;2023-06-19T11:08:17;155341.44;;;29.51;43.83
3796;BME280;1913;50.660;7.834;2023-06-19T11:10:43;155658.06;;;30.78;42.98
3796;BME280;1913;50.660;7.834;2023-06-19T11:13:17;155542.34;;;30.32;41.35
3796;BME280;1913;50.660;7.834;2023-06-19T11:15:43;155590.63;;;30.51;41.59
3796;BME280;1913;50.660;7.834;2023-06-19T11:18:09;155879.38;;;31.67;40.43
3796;BME280;1913;50.660;7.834;2023-06-19T11:20:50;156062.56;;;32.40;38.48
3796;BME280;1913;50.660;7.834;2023-06-19T11:23:17;156267.53;;;33.23;36.42
3796;BME280;1913;50.660;7.834;2023-06-19T11:25:43;156202.63;;;32.97;35.03
3796;BME280;1913;50.660;7.834;2023-06-19T11:28:16;156244.66;;;33.13;35.37
3796;BME280;1913;50.660;7.834;2023-06-19T11:30:48;156011.72;;;32.20;34.98
3796;BME280;1913;50.660;7.834;2023-06-19T11:33:18;156004.06;;;32.17;34.71
3796;BME280;1913;50.660;7.834;2023-06-19T11:35:48;155599.53;;;30.54;38.37
3796;BME280;1913;50.660;7.834;2023-06-19T11:38:21;155579.19;;;30.46;38.34
3796;BME280;1913;50.660;7.834;2023-06-19T11:40:47;155753.38;;;31.16;37.18
3796;BME280;1913;50.660;7.834;2023-06-19T11:43:26;156057.50;;;32.38;38.24
3796;BME280;1913;50.660;7.834;2023-06-19T11:45:52;156258.63;;;33.19;34.18
3796;BME280;1913;50.660;7.834;2023-06-19T11:48:23;156126.28;;;32.66;34.37
3796;BME280;1913;50.660;7.834;2023-06-19T11:50:48;155795.41;;;31.33;36.75
3796;BME280;1913;50.660;7.834;2023-06-19T11:53:13;155769.91;;;31.23;36.80
3796;BME280;1913;50.660;7.834;2023-06-19T11:55:39;155909.88;;;31.79;36.14
3796;BME280;1913;50.660;7.834;2023-06-19T11:58:05;156121.16;;;32.64;36.48
3796;BME280;1913;50.660;7.834;2023-06-19T12:00:31;156093.16;;;32.53;34.64
3796;BME280;1913;50.660;7.834;2023-06-19T12:02:56;156096.97;;;32.54;34.56
3796;BME280;1913;50.660;7.834;2023-06-19T12:05:23;156130.06;;;32.67;33.53
3796;BME280;1913;50.660;7.834;2023-06-19T12:07:49;156016.78;;;32.22;34.39
3796;BME280;1913;50.660;7.834;2023-06-19T12:10:14;156196.22;;;32.94;34.41
3796;BME280;1913;50.660;7.834;2023-06-19T12:12:40;155893.34;;;31.72;35.72
3796;BME280;1913;50.660;7.834;2023-06-19T12:15:06;156070.25;;;32.43;34.43
3796;BME280;1913;50.660;7.834;2023-06-19T12:17:32;156089.31;;;32.51;34.43
3796;BME280;1913;50.660;7.834;2023-06-19T12:19:58;156220.44;;;33.04;33.47
3796;BME280;1913;50.660;7.834;2023-06-19T12:22:24;155979.88;;;32.07;34.81
3796;BME280;1913;50.660;7.834;2023-06-19T12:24:49;156137.72;;;32.71;34.16
3796;BME280;1913;50.660;7.834;2023-06-19T12:27:15;156065.19;;;32.41;33.30
3796;BME280;1913;50.660;7.834;2023-06-19T12:29:40;156090.63;;;32.52;33.63
3796;BME280;1913;50.660;7.834;2023-06-19T12:32:06;156090.63;;;32.52;34.03
3796;BME280;1913;50.660;7.834;2023-06-19T12:34:31;155935.38;;;31.89;33.83
3796;BME280;1913;50.660;7.834;2023-06-19T12:36:57;156085.53;;;32.50;33.70
3796;BME280;1913;50.660;7.834;2023-06-19T12:39:22;156203.91;;;32.97;33.02
3796;BME280;1913;50.660;7.834;2023-06-19T12:41:48;156127.53;;;32.66;32.86
3796;BME280;1913;50.660;7.834;2023-06-19T12:44:13;155898.44;;;31.75;34.76
3796;BME280;1913;50.660;7.834;2023-06-19T12:46:38;155777.56;;;31.26;35.66
3796;BME280;1913;50.660;7.834;2023-06-19T12:49:04;155922.63;;;31.84;34.93
3796;BME280;1913;50.660;7.834;2023-06-19T12:51:30;155943.00;;;31.92;34.75
3796;BME280;1913;50.660;7.834;2023-06-19T12:53:55;156202.63;;;32.97;33.11
3796;BME280;1913;50.660;7.834;2023-06-19T12:56:20;156238.28;;;33.11;31.57
3796;BME280;1913;50.660;7.834;2023-06-19T12:58:46;156205.16;;;32.98;32.46
3796;BME280;1913;50.660;7.834;2023-06-19T13:01:11;156151.66;;;32.76;32.75
3796;BME280;1913;50.660;7.834;2023-06-19T13:03:36;155956.97;;;31.98;34.01
3796;BME280;1913;50.660;7.834;2023-06-19T13:06:02;156105.88;;;32.58;32.68
3796;BME280;1913;50.660;7.834;2023-06-19T13:08:27;156029.50;;;32.27;33.78